Terminal Aerodrome Forecast
Issued by NWS

Home | Current Version | Previous Version | Text Only | Print | Product List | Glossary On
Versions: 1 2 3 4 5 6 7 8 9 10 11 12 13
000
FTUS42 TJSJ 280500
TAFJMZ
TAF
TJMZ 280533Z 2806/0106 07007KT P6SM FEW050
     FM281430 28008KT P6SM SCT040
     FM282100 VRB06KT P6SM FEW050
      AMD NOT SKED TIL 281500=

USA.gov is the U.S. government's official web portal to all federal, state and local government web resources and services.